sensor_id;sensor_type;location;lat;lon;timestamp;pressure;altitude;pressure_sealevel;temperature;humidity
24825;BME280;12910;57.690;11.974;2022-11-30T00:00:19;101994.34;;;3.60;100.00
24825;BME280;12910;57.690;11.974;2022-11-30T00:02:45;101987.97;;;3.53;100.00
24825;BME280;12910;57.690;11.974;2022-11-30T00:05:12;102006.44;;;3.64;100.00
24825;BME280;12910;57.690;11.974;2022-11-30T00:07:38;102004.88;;;3.66;100.00
24825;BME280;12910;57.690;11.974;2022-11-30T00:10:04;102005.09;;;3.69;100.00
24825;BME280;12910;57.690;11.974;2022-11-30T00:12:30;102012.59;;;3.68;100.00
24825;BME280;12910;57.690;11.974;2022-11-30T00:14:55;102019.09;;;3.64;100.00
24825;BME280;12910;57.690;11.974;2022-11-30T00:17:20;102021.84;;;3.67;100.00
24825;BME280;12910;57.690;11.974;2022-11-30T00:19:46;102015.03;;;3.66;100.00
24825;BME280;12910;57.690;11.974;2022-11-30T00:22:11;102011.28;;;3.61;100.00
24825;BME280;12910;57.690;11.974;2022-11-30T00:24:37;102018.25;;;3.64;100.00
24825;BME280;12910;57.690;11.974;2022-11-30T00:27:02;102014.50;;;3.58;100.00
24825;BME280;12910;57.690;11.974;2022-11-30T00:29:28;102021.72;;;3.66;100.00
24825;BME280;12910;57.690;11.974;2022-11-30T00:31:53;102013.03;;;3.62;100.00
24825;BME280;12910;57.690;11.974;2022-11-30T00:34:18;102022.53;;;3.65;100.00
24825;BME280;12910;57.690;11.974;2022-11-30T00:36:44;102013.25;;;3.65;100.00
24825;BME280;12910;57.690;11.974;2022-11-30T00:39:09;102021.84;;;3.67;100.00
24825;BME280;12910;57.690;11.974;2022-11-30T00:41:35;102010.50;;;3.62;100.00
24825;BME280;12910;57.690;11.974;2022-11-30T00:44:00;102021.84;;;3.67;100.00
24825;BME280;12910;57.690;11.974;2022-11-30T00:46:25;102015.59;;;3.62;100.00
24825;BME280;12910;57.690;11.974;2022-11-30T00:48:51;102027.91;;;3.69;100.00
24825;BME280;12910;57.690;11.974;2022-11-30T00:51:16;102021.84;;;3.67;100.00
24825;BME280;12910;57.690;11.974;2022-11-30T00:53:43;102028.69;;;3.68;100.00
24825;BME280;12910;57.690;11.974;2022-11-30T00:56:09;102022.03;;;3.70;100.00
24825;BME280;12910;57.690;11.974;2022-11-30T00:58:34;102026.25;;;3.70;100.00
24825;BME280;12910;57.690;11.974;2022-11-30T01:01:00;102026.25;;;3.70;100.00
24825;BME280;12910;57.690;11.974;2022-11-30T01:03:25;102007.25;;;3.51;100.00
24825;BME280;12910;57.690;11.974;2022-11-30T01:05:51;102026.63;;;3.63;100.00
24825;BME280;12910;57.690;11.974;2022-11-30T01:08:16;102022.63;;;3.66;100.00
24825;BME280;12910;57.690;11.974;2022-11-30T01:10:43;102025.38;;;3.69;100.00
24825;BME280;12910;57.690;11.974;2022-11-30T01:13:10;102034.31;;;3.64;100.00
24825;BME280;12910;57.690;11.974;2022-11-30T01:15:42;102031.00;;;3.65;100.00
24825;BME280;12910;57.690;11.974;2022-11-30T01:18:08;102039.03;;;3.71;100.00
24825;BME280;12910;57.690;11.974;2022-11-30T01:20:33;102043.13;;;3.69;100.00
24825;BME280;12910;57.690;11.974;2022-11-30T01:22:59;102032.88;;;3.68;100.00
24825;BME280;12910;57.690;11.974;2022-11-30T01:25:25;102040.59;;;3.69;100.00
24825;BME280;12910;57.690;11.974;2022-11-30T01:27:50;102043.13;;;3.69;100.00
24825;BME280;12910;57.690;11.974;2022-11-30T01:30:16;102050.28;;;3.75;100.00
24825;BME280;12910;57.690;11.974;2022-11-30T01:32:42;102047.63;;;3.73;100.00
24825;BME280;12910;57.690;11.974;2022-11-30T01:35:08;102036.84;;;3.64;100.00
24825;BME280;12910;57.690;11.974;2022-11-30T01:37:34;102053.47;;;3.72;100.00
24825;BME280;12910;57.690;11.974;2022-11-30T01:39:59;102051.06;;;3.74;100.00
24825;BME280;12910;57.690;11.974;2022-11-30T01:42:25;102046.63;;;3.71;100.00
24825;BME280;12910;57.690;11.974;2022-11-30T01:44:55;102045.84;;;3.72;100.00
24825;BME280;12910;57.690;11.974;2022-11-30T01:47:48;102054.44;;;3.74;100.00
24825;BME280;12910;57.690;11.974;2022-11-30T01:50:20;102051.06;;;3.74;100.00
24825;BME280;12910;57.690;11.974;2022-11-30T01:52:52;102053.28;;;3.69;100.00
24825;BME280;12910;57.690;11.974;2022-11-30T01:55:32;102049.28;;;3.73;100.00
24825;BME280;12910;57.690;11.974;2022-11-30T01:58:09;102048.59;;;3.76;100.00
24825;BME280;12910;57.690;11.974;2022-11-30T02:00:35;102045.66;;;3.69;100.00
24825;BME280;12910;57.690;11.974;2022-11-30T02:03:12;102039.03;;;3.71;100.00
24825;BME280;12910;57.690;11.974;2022-11-30T02:05:40;102035.41;;;3.68;100.00
24825;BME280;12910;57.690;11.974;2022-11-30T02:08:07;102045.84;;;3.72;100.00
24825;BME280;12910;57.690;11.974;2022-11-30T02:10:36;102043.22;;;3.71;100.00
24825;BME280;12910;57.690;11.974;2022-11-30T02:18:14;102054.38;;;3.61;100.00
24825;BME280;12910;57.690;11.974;2022-11-30T02:28:44;102066.50;;;3.65;100.00
24825;BME280;12910;57.690;11.974;2022-11-30T02:31:21;102058.13;;;3.66;100.00
24825;BME280;12910;57.690;11.974;2022-11-30T02:33:49;102060.44;;;3.63;100.00
24825;BME280;12910;57.690;11.974;2022-11-30T02:36:16;102056.91;;;3.61;100.00
24825;BME280;12910;57.690;11.974;2022-11-30T02:38:42;102060.44;;;3.63;100.00
24825;BME280;12910;57.690;11.974;2022-11-30T02:41:08;102060.44;;;3.63;100.00
24825;BME280;12910;57.690;11.974;2022-11-30T02:43:33;102054.69;;;3.66;100.00
24825;BME280;12910;57.690;11.974;2022-11-30T02:48:49;102063.56;;;3.59;100.00
24825;BME280;12910;57.690;11.974;2022-11-30T02:51:20;102066.88;;;3.58;100.00
24825;BME280;12910;57.690;11.974;2022-11-30T02:53:47;102063.25;;;3.54;100.00
24825;BME280;12910;57.690;11.974;2022-11-30T02:56:13;102064.81;;;3.52;100.00
24825;BME280;12910;57.690;11.974;2022-11-30T02:58:39;102070.97;;;3.56;100.00
24825;BME280;12910;57.690;11.974;2022-11-30T03:01:05;102072.63;;;3.55;100.00
24825;BME280;12910;57.690;11.974;2022-11-30T03:03:30;102066.66;;;3.55;100.00
24825;BME280;12910;57.690;11.974;2022-11-30T03:05:56;102077.94;;;3.47;100.00
24825;BME280;12910;57.690;11.974;2022-11-30T03:08:22;102079.69;;;3.48;100.00
24825;BME280;12910;57.690;11.974;2022-11-30T03:10:47;102081.47;;;3.49;100.00
24825;BME280;12910;57.690;11.974;2022-11-30T03:13:12;102080.69;;;3.50;100.00
24825;BME280;12910;57.690;11.974;2022-11-30T03:15:38;102082.13;;;3.46;100.00
24825;BME280;12910;57.690;11.974;2022-11-30T03:18:04;102079.47;;;3.45;100.00
24825;BME280;12910;57.690;11.974;2022-11-30T03:20:29;102074.41;;;3.45;100.00
24825;BME280;12910;57.690;11.974;2022-11-30T03:22:59;102070.47;;;3.36;100.00
24825;BME280;12910;57.690;11.974;2022-11-30T03:25:24;102085.00;;;3.39;100.00
24825;BME280;12910;57.690;11.974;2022-11-30T03:27:50;102084.13;;;3.38;100.00
24825;BME280;12910;57.690;11.974;2022-11-30T03:30:15;102082.16;;;3.34;100.00
24825;BME280;12910;57.690;11.974;2022-11-30T03:32:41;102085.66;;;3.36;100.00
24825;BME280;12910;57.690;11.974;2022-11-30T03:35:07;102086.03;;;3.29;100.00
24825;BME280;12910;57.690;11.974;2022-11-30T03:37:32;102084.69;;;3.34;100.00
24825;BME280;12910;57.690;11.974;2022-11-30T03:39:57;102079.50;;;3.33;100.00
24825;BME280;12910;57.690;11.974;2022-11-30T03:42:23;102088.75;;;3.32;100.00
24825;BME280;12910;57.690;11.974;2022-11-30T03:44:48;102094.63;;;3.31;100.00
24825;BME280;12910;57.690;11.974;2022-11-30T03:47:13;102087.66;;;3.28;100.00
24825;BME280;12910;57.690;11.974;2022-11-30T03:49:39;102083.84;;;3.22;100.00
24825;BME280;12910;57.690;11.974;2022-11-30T03:52:04;102089.56;;;3.19;100.00
24825;BME280;12910;57.690;11.974;2022-11-30T03:54:29;102093.00;;;3.20;100.00
24825;BME280;12910;57.690;11.974;2022-11-30T03:56:55;102090.44;;;3.20;100.00
24825;BME280;12910;57.690;11.974;2022-11-30T03:59:20;102091.53;;;3.23;100.00
24825;BME280;12910;57.690;11.974;2022-11-30T04:01:45;102092.09;;;3.31;100.00
24825;BME280;12910;57.690;11.974;2022-11-30T04:04:11;102100.47;;;3.30;100.00
24825;BME280;12910;57.690;11.974;2022-11-30T04:06:37;102100.69;;;3.21;100.00
24825;BME280;12910;57.690;11.974;2022-11-30T04:09:03;102104.31;;;3.25;100.00
24825;BME280;12910;57.690;11.974;2022-11-30T04:11:28;102103.13;;;3.20;100.00
24825;BME280;12910;57.690;11.974;2022-11-30T04:13:53;102103.31;;;3.23;100.00
24825;BME280;12910;57.690;11.974;2022-11-30T04:16:19;102104.22;;;3.23;100.00
24825;BME280;12910;57.690;11.974;2022-11-30T04:18:44;102093.00;;;3.20;100.00
24825;BME280;12910;57.690;11.974;2022-11-30T04:21:10;102099.81;;;3.21;100.00
24825;BME280;12910;57.690;11.974;2022-11-30T04:23:38;102096.97;;;3.16;100.00
24825;BME280;12910;57.690;11.974;2022-11-30T04:26:05;102094.31;;;3.15;100.00
24825;BME280;12910;57.690;11.974;2022-11-30T04:28:32;102105.34;;;3.15;100.00
24825;BME280;12910;57.690;11.974;2022-11-30T04:30:57;102106.88;;;3.13;100.00
24825;BME280;12910;57.690;11.974;2022-11-30T04:33:25;102106.19;;;3.16;100.00
24825;BME280;12910;57.690;11.974;2022-11-30T04:35:54;102098.41;;;3.13;100.00
24825;BME280;12910;57.690;11.974;2022-11-30T04:38:20;102094.31;;;3.15;100.00
24825;BME280;12910;57.690;11.974;2022-11-30T04:40:45;102096.50;;;3.10;100.00
24825;BME280;12910;57.690;11.974;2022-11-30T04:43:11;102101.13;;;3.16;100.00
24825;BME280;12910;57.690;11.974;2022-11-30T04:45:37;102099.81;;;3.09;100.00
24825;BME280;12910;57.690;11.974;2022-11-30T04:48:03;102088.59;;;3.05;100.00
24825;BME280;12910;57.690;11.974;2022-11-30T04:50:29;102098.28;;;3.11;100.00
24825;BME280;12910;57.690;11.974;2022-11-30T04:52:54;102101.72;;;3.11;100.00
24825;BME280;12910;57.690;11.974;2022-11-30T04:55:20;102106.00;;;3.13;100.00
24825;BME280;12910;57.690;11.974;2022-11-30T04:57:46;102106.09;;;3.14;100.00
24825;BME280;12910;57.690;11.974;2022-11-30T05:00:13;102106.88;;;3.13;100.00
24825;BME280;12910;57.690;11.974;2022-11-30T05:02:39;102102.25;;;3.07;100.00
24825;BME280;12910;57.690;11.974;2022-11-30T05:05:05;102101.16;;;3.04;100.00
24825;BME280;12910;57.690;11.974;2022-11-30T05:07:30;102093.66;;;3.05;100.00
24825;BME280;12910;57.690;11.974;2022-11-30T05:09:56;102109.31;;;3.11;100.00
24825;BME280;12910;57.690;11.974;2022-11-30T05:12:22;102113.69;;;3.14;100.00
24825;BME280;12910;57.690;11.974;2022-11-30T05:14:47;102106.22;;;3.04;100.00
24825;BME280;12910;57.690;11.974;2022-11-30T05:17:13;102103.59;;;3.02;100.00
24825;BME280;12910;57.690;11.974;2022-11-30T05:19:38;102110.63;;;3.06;100.00
24825;BME280;12910;57.690;11.974;2022-11-30T05:22:03;102104.25;;;3.11;100.00
24825;BME280;12910;57.690;11.974;2022-11-30T05:24:29;102104.44;;;3.15;100.00
24825;BME280;12910;57.690;11.974;2022-11-30T05:26:54;102104.44;;;3.15;100.00
24825;BME280;12910;57.690;11.974;2022-11-30T05:29:20;102100.25;;;3.15;100.00
24825;BME280;12910;57.690;11.974;2022-11-30T05:31:45;102109.72;;;3.18;100.00
24825;BME280;12910;57.690;11.974;2022-11-30T05:34:11;102106.97;;;3.15;100.00
24825;BME280;12910;57.690;11.974;2022-11-30T05:36:36;102112.16;;;3.16;100.00
24825;BME280;12910;57.690;11.974;2022-11-30T05:39:02;102118.78;;;3.14;100.00
24825;BME280;12910;57.690;11.974;2022-11-30T05:41:27;102110.19;;;3.12;100.00
24825;BME280;12910;57.690;11.974;2022-11-30T05:43:52;102112.03;;;3.15;100.00
24825;BME280;12910;57.690;11.974;2022-11-30T05:46:18;102128.22;;;3.17;100.00
24825;BME280;12910;57.690;11.974;2022-11-30T05:48:43;102122.41;;;3.18;100.00
24825;BME280;12910;57.690;11.974;2022-11-30T05:51:14;102119.75;;;3.16;100.00
24825;BME280;12910;57.690;11.974;2022-11-30T05:53:40;102119.75;;;3.16;100.00
24825;BME280;12910;57.690;11.974;2022-11-30T05:56:09;102120.63;;;3.17;100.00
24825;BME280;12910;57.690;11.974;2022-11-30T05:58:35;102117.69;;;3.10;100.00
24825;BME280;12910;57.690;11.974;2022-11-30T06:01:01;102117.88;;;3.14;100.00
24825;BME280;12910;57.690;11.974;2022-11-30T06:03:27;102120.53;;;3.15;100.00
24825;BME280;12910;57.690;11.974;2022-11-30T06:05:53;102113.06;;;3.05;100.00
24825;BME280;12910;57.690;11.974;2022-11-30T06:08:19;102114.25;;;3.10;100.00
24825;BME280;12910;57.690;11.974;2022-11-30T06:10:45;102119.63;;;3.15;100.00
24825;BME280;12910;57.690;11.974;2022-11-30T06:13:11;102123.41;;;3.20;100.00
24825;BME280;12910;57.690;11.974;2022-11-30T06:15:40;102114.47;;;3.13;100.00
24825;BME280;12910;57.690;11.974;2022-11-30T06:18:07;102120.53;;;3.15;100.00
24825;BME280;12910;57.690;11.974;2022-11-30T06:20:33;102125.78;;;3.18;100.00
24825;BME280;12910;57.690;11.974;2022-11-30T06:22:59;102128.34;;;3.18;100.00
24825;BME280;12910;57.690;11.974;2022-11-30T06:25:25;102127.25;;;3.15;100.00
24825;BME280;12910;57.690;11.974;2022-11-30T06:27:51;102131.78;;;3.07;100.00
24825;BME280;12910;57.690;11.974;2022-11-30T06:30:16;102138.13;;;3.14;100.00
24825;BME280;12910;57.690;11.974;2022-11-30T06:32:46;102138.13;;;3.14;100.00
24825;BME280;12910;57.690;11.974;2022-11-30T06:35:12;102141.47;;;3.13;100.00
24825;BME280;12910;57.690;11.974;2022-11-30T06:37:38;102128.34;;;3.06;100.00
24825;BME280;12910;57.690;11.974;2022-11-30T06:40:04;102145.66;;;3.12;100.00
24825;BME280;12910;57.690;11.974;2022-11-30T06:42:30;102150.03;;;3.15;100.00
24825;BME280;12910;57.690;11.974;2022-11-30T06:44:56;102148.28;;;3.14;100.00
24825;BME280;12910;57.690;11.974;2022-11-30T06:47:22;102143.00;;;3.10;100.00
24825;BME280;12910;57.690;11.974;2022-11-30T06:49:48;102147.06;;;3.08;100.00
24825;BME280;12910;57.690;11.974;2022-11-30T06:52:13;102156.88;;;3.16;100.00
24825;BME280;12910;57.690;11.974;2022-11-30T06:54:39;102161.75;;;3.13;100.00
24825;BME280;12910;57.690;11.974;2022-11-30T06:57:04;102165.25;;;3.15;100.00
24825;BME280;12910;57.690;11.974;2022-11-30T06:59:29;102160.06;;;3.13;100.00
24825;BME280;12910;57.690;11.974;2022-11-30T07:01:55;102170.75;;;3.09;100.00
24825;BME280;12910;57.690;11.974;2022-11-30T07:04:20;102174.94;;;3.08;100.00
24825;BME280;12910;57.690;11.974;2022-11-30T07:06:46;102168.22;;;3.09;100.00
24825;BME280;12910;57.690;11.974;2022-11-30T07:09:11;102161.06;;;3.03;100.00
24825;BME280;12910;57.690;11.974;2022-11-30T07:11:38;102173.94;;;3.06;100.00
24825;BME280;12910;57.690;11.974;2022-11-30T07:14:03;102172.75;;;3.13;100.00
24825;BME280;12910;57.690;11.974;2022-11-30T07:16:28;102177.28;;;3.17;100.00
24825;BME280;12910;57.690;11.974;2022-11-30T07:18:54;102178.13;;;3.18;100.00
24825;BME280;12910;57.690;11.974;2022-11-30T07:21:19;102171.66;;;3.09;100.00
24825;BME280;12910;57.690;11.974;2022-11-30T07:23:45;102178.56;;;3.12;100.00
24825;BME280;12910;57.690;11.974;2022-11-30T07:26:29;102182.00;;;3.13;100.00
24825;BME280;12910;57.690;11.974;2022-11-30T07:28:54;102163.72;;;3.05;100.00
24825;BME280;12910;57.690;11.974;2022-11-30T07:31:30;102183.75;;;3.14;100.00
24825;BME280;12910;57.690;11.974;2022-11-30T07:34:02;102181.13;;;3.12;100.00
24825;BME280;12910;57.690;11.974;2022-11-30T07:36:29;102178.34;;;3.09;100.00
24825;BME280;12910;57.690;11.974;2022-11-30T07:38:56;102178.25;;;3.07;100.00
24825;BME280;12910;57.690;11.974;2022-11-30T07:41:21;102170.22;;;3.01;100.00
24825;BME280;12910;57.690;11.974;2022-11-30T07:43:47;102179.34;;;3.11;100.00
24825;BME280;12910;57.690;11.974;2022-11-30T07:46:13;102166.59;;;2.98;100.00
24825;BME280;12910;57.690;11.974;2022-11-30T07:48:39;102185.94;;;3.09;100.00
24825;BME280;12910;57.690;11.974;2022-11-30T07:51:07;102186.06;;;3.10;100.00
24825;BME280;12910;57.690;11.974;2022-11-30T07:53:34;102187.63;;;3.08;100.00
24825;BME280;12910;57.690;11.974;2022-11-30T07:56:11;102182.31;;;3.05;100.00
24825;BME280;12910;57.690;11.974;2022-11-30T07:58:37;102194.78;;;3.14;100.00
24825;BME280;12910;57.690;11.974;2022-11-30T08:01:08;102196.41;;;3.14;100.00
24825;BME280;12910;57.690;11.974;2022-11-30T08:03:35;102194.88;;;3.16;100.00
24825;BME280;12910;57.690;11.974;2022-11-30T08:06:09;102198.31;;;3.16;100.00
24825;BME280;12910;57.690;11.974;2022-11-30T08:08:38;102197.53;;;3.17;100.00
24825;BME280;12910;57.690;11.974;2022-11-30T08:11:04;102203.16;;;3.13;100.00
24825;BME280;12910;57.690;11.974;2022-11-30T08:13:31;102187.63;;;3.08;100.00
24825;BME280;12910;57.690;11.974;2022-11-30T08:16:13;102188.16;;;3.04;100.00
24825;BME280;12910;57.690;11.974;2022-11-30T08:18:40;102200.03;;;3.05;100.00
24825;BME280;12910;57.690;11.974;2022-11-30T08:21:07;102193.22;;;3.04;100.00
24825;BME280;12910;57.690;11.974;2022-11-30T08:23:37;102178.03;;;2.92;100.00
24825;BME280;12910;57.690;11.974;2022-11-30T08:26:30;102201.59;;;3.03;100.00
24825;BME280;12910;57.690;11.974;2022-11-30T08:28:56;102202.03;;;3.09;100.00
24825;BME280;12910;57.690;11.974;2022-11-30T08:31:33;102216.59;;;3.12;100.00
24825;BME280;12910;57.690;11.974;2022-11-30T08:34:08;102205.69;;;3.13;100.00
24825;BME280;12910;57.690;11.974;2022-11-30T08:36:34;102206.00;;;3.18;100.00
24825;BME280;12910;57.690;11.974;2022-11-30T08:39:01;102218.69;;;3.18;100.00
24825;BME280;12910;57.690;11.974;2022-11-30T08:41:28;102195.31;;;3.10;100.00
24825;BME280;12910;57.690;11.974;2022-11-30T08:43:54;102210.41;;;3.20;100.00
24825;BME280;12910;57.690;11.974;2022-11-30T08:46:20;102215.81;;;3.25;100.00
24825;BME280;12910;57.690;11.974;2022-11-30T08:48:46;102212.28;;;3.23;100.00
24825;BME280;12910;57.690;11.974;2022-11-30T08:51:14;102220.34;;;3.29;100.00
24825;BME280;12910;57.690;11.974;2022-11-30T08:53:40;102222.31;;;3.33;100.00
24825;BME280;12910;57.690;11.974;2022-11-30T08:56:09;102223.88;;;3.31;100.00
24825;BME280;12910;57.690;11.974;2022-11-30T08:58:36;102222.09;;;3.30;100.00
24825;BME280;12910;57.690;11.974;2022-11-30T09:01:17;102226.50;;;3.33;100.00
24825;BME280;12910;57.690;11.974;2022-11-30T09:03:43;102223.66;;;3.28;100.00
24825;BME280;12910;57.690;11.974;2022-11-30T09:06:35;102226.28;;;3.30;100.00
24825;BME280;12910;57.690;11.974;2022-11-30T09:09:02;102223.41;;;3.25;100.00
24825;BME280;12910;57.690;11.974;2022-11-30T09:11:30;102240.94;;;3.34;100.00
24825;BME280;12910;57.690;11.974;2022-11-30T09:13:57;102237.31;;;3.30;100.00
24825;BME280;12910;57.690;11.974;2022-11-30T09:16:24;102243.25;;;3.42;100.00
24825;BME280;12910;57.690;11.974;2022-11-30T09:18:50;102241.28;;;3.38;100.00
24825;BME280;12910;57.690;11.974;2022-11-30T09:21:18;102243.25;;;3.42;100.00
24825;BME280;12910;57.690;11.974;2022-11-30T09:23:45;102249.22;;;3.43;100.00
24825;BME280;12910;57.690;11.974;2022-11-30T09:26:14;102249.66;;;3.37;100.00
24825;BME280;12910;57.690;11.974;2022-11-30T09:28:40;102254.94;;;3.40;100.00
24825;BME280;12910;57.690;11.974;2022-11-30T09:31:09;102244.13;;;3.43;100.00
24825;BME280;12910;57.690;11.974;2022-11-30T09:33:35;102251.97;;;3.46;100.00
24825;BME280;12910;57.690;11.974;2022-11-30T09:36:13;102252.31;;;3.51;100.00
24825;BME280;12910;57.690;11.974;2022-11-30T09:38:39;102246.09;;;3.47;100.00
24825;BME280;12910;57.690;11.974;2022-11-30T09:46:31;102256.25;;;3.59;100.00
24825;BME280;12910;57.690;11.974;2022-11-30T09:49:02;102248.97;;;3.52;100.00
24825;BME280;12910;57.690;11.974;2022-11-30T09:51:36;102241.94;;;3.48;100.00
24825;BME280;12910;57.690;11.974;2022-11-30T09:54:05;102245.13;;;3.57;100.00
24825;BME280;12910;57.690;11.974;2022-11-30T09:56:38;102251.38;;;3.62;100.00
24825;BME280;12910;57.690;11.974;2022-11-30T10:01:39;102255.59;;;3.62;100.00
24825;BME280;12910;57.690;11.974;2022-11-30T10:04:08;102255.16;;;3.67;100.00
24825;BME280;12910;57.690;11.974;2022-11-30T10:12:30;102238.94;;;3.65;100.00
24825;BME280;12910;57.690;11.974;2022-11-30T10:15:19;102256.25;;;3.71;100.00
24825;BME280;12910;57.690;11.974;2022-11-30T10:18:16;102252.38;;;3.64;100.00
24825;BME280;12910;57.690;11.974;2022-11-30T10:20:54;102252.16;;;3.61;100.00
24825;BME280;12910;57.690;11.974;2022-11-30T10:23:56;102250.94;;;3.68;100.00
24825;BME280;12910;57.690;11.974;2022-11-30T10:26:32;102229.25;;;3.59;100.00
24825;BME280;12910;57.690;11.974;2022-11-30T10:29:19;102245.00;;;3.67;100.00
24825;BME280;12910;57.690;11.974;2022-11-30T10:31:54;102238.06;;;3.65;100.00
24825;BME280;12910;57.690;11.974;2022-11-30T10:34:36;102246.78;;;3.68;100.00
24825;BME280;12910;57.690;11.974;2022-11-30T10:37:12;102238.84;;;3.64;100.00
24825;BME280;12910;57.690;11.974;2022-11-30T10:39:56;102249.31;;;3.68;100.00
24825;BME280;12910;57.690;11.974;2022-11-30T10:42:51;102247.97;;;3.62;100.00
24825;BME280;12910;57.690;11.974;2022-11-30T10:45:20;102243.13;;;3.53;100.00
24825;BME280;12910;57.690;11.974;2022-11-30T10:47:58;102245.34;;;3.60;100.00
24825;BME280;12910;57.690;11.974;2022-11-30T10:50:36;102245.34;;;3.60;100.00
24825;BME280;12910;57.690;11.974;2022-11-30T10:53:03;102236.41;;;3.65;100.00
24825;BME280;12910;57.690;11.974;2022-11-30T10:55:34;102246.19;;;3.72;100.00
24825;BME280;12910;57.690;11.974;2022-11-30T10:58:12;102247.63;;;3.81;100.00
24825;BME280;12910;57.690;11.974;2022-11-30T11:00:49;102245.88;;;3.80;100.00
24825;BME280;12910;57.690;11.974;2022-11-30T11:03:25;102246.06;;;3.83;100.00
24825;BME280;12910;57.690;11.974;2022-11-30T11:06:20;102242.84;;;3.85;100.00
24825;BME280;12910;57.690;11.974;2022-11-30T11:08:46;102236.91;;;3.85;100.00
24825;BME280;12910;57.690;11.974;2022-11-30T11:11:30;102239.47;;;3.85;100.00
24825;BME280;12910;57.690;11.974;2022-11-30T11:14:18;102247.41;;;3.78;100.00
24825;BME280;12910;57.690;11.974;2022-11-30T11:19:31;102243.75;;;3.86;100.00
24825;BME280;12910;57.690;11.974;2022-11-30T11:21:59;102245.72;;;3.90;100.00
24825;BME280;12910;57.690;11.974;2022-11-30T11:24:26;102239.88;;;3.91;100.00
24825;BME280;12910;57.690;11.974;2022-11-30T11:26:53;102242.84;;;3.97;100.00
24825;BME280;12910;57.690;11.974;2022-11-30T11:29:29;102223.47;;;3.86;100.00
24825;BME280;12910;57.690;11.974;2022-11-30T11:34:32;102249.56;;;4.09;100.00
24825;BME280;12910;57.690;11.974;2022-11-30T11:37:17;102247.22;;;4.12;100.00
24825;BME280;12910;57.690;11.974;2022-11-30T11:42:40;102234.34;;;4.09;100.00
24825;BME280;12910;57.690;11.974;2022-11-30T11:45:20;102225.50;;;4.03;100.00
24825;BME280;12910;57.690;11.974;2022-11-30T11:47:56;102247.34;;;4.13;100.00
24825;BME280;12910;57.690;11.974;2022-11-30T11:50:28;102239.97;;;4.04;100.00
24825;BME280;12910;57.690;11.974;2022-11-30T11:53:14;102247.03;;;4.09;100.00
24825;BME280;12910;57.690;11.974;2022-11-30T11:55:47;102252.19;;;4.10;100.00
24825;BME280;12910;57.690;11.974;2022-11-30T11:58:18;102252.88;;;4.08;100.00
24825;BME280;12910;57.690;11.974;2022-11-30T12:00:48;102256.72;;;4.02;100.00
24825;BME280;12910;57.690;11.974;2022-11-30T12:03:18;102256.31;;;3.96;100.00
24825;BME280;12910;57.690;11.974;2022-11-30T12:05:55;102239.56;;;3.86;100.00
24825;BME280;12910;57.690;11.974;2022-11-30T12:11:17;102254.00;;;3.87;100.00
24825;BME280;12910;57.690;11.974;2022-11-30T12:13:45;102247.28;;;3.88;100.00
24825;BME280;12910;57.690;11.974;2022-11-30T12:27:23;102250.59;;;3.87;100.00
24825;BME280;12910;57.690;11.974;2022-11-30T12:30:00;102256.44;;;3.86;100.00
24825;BME280;12910;57.690;11.974;2022-11-30T12:43:18;102253.72;;;3.71;100.00
24825;BME280;12910;57.690;11.974;2022-11-30T12:45:46;102249.72;;;3.74;100.00
24825;BME280;12910;57.690;11.974;2022-11-30T12:53:52;102252.63;;;3.67;100.00
24825;BME280;12910;57.690;11.974;2022-11-30T13:01:50;102251.84;;;3.68;100.00
24825;BME280;12910;57.690;11.974;2022-11-30T13:04:29;102249.09;;;3.65;100.00
24825;BME280;12910;57.690;11.974;2022-11-30T13:07:00;102254.38;;;3.68;100.00
24825;BME280;12910;57.690;11.974;2022-11-30T13:09:28;102256.91;;;3.68;100.00
24825;BME280;12910;57.690;11.974;2022-11-30T13:12:31;102251.63;;;3.65;100.00
24825;BME280;12910;57.690;11.974;2022-11-30T13:14:51;102252.16;;;3.61;100.00
24825;BME280;12910;57.690;11.974;2022-11-30T13:17:19;102258.78;;;3.59;100.00
24825;BME280;12910;57.690;11.974;2022-11-30T13:22:25;102255.03;;;3.54;100.00
24825;BME280;12910;57.690;11.974;2022-11-30T13:24:59;102253.41;;;3.54;100.00
24825;BME280;12910;57.690;11.974;2022-11-30T13:27:39;102241.25;;;3.50;100.00
24825;BME280;12910;57.690;11.974;2022-11-30T13:32:52;102263.88;;;3.59;100.00
24825;BME280;12910;57.690;11.974;2022-11-30T13:38:14;102267.94;;;3.57;100.00
24825;BME280;12910;57.690;11.974;2022-11-30T13:40:40;102267.72;;;3.54;100.00
24825;BME280;12910;57.690;11.974;2022-11-30T13:43:15;102256.25;;;3.47;100.00
24825;BME280;12910;57.690;11.974;2022-11-30T13:45:42;102274.56;;;3.55;100.00
24825;BME280;12910;57.690;11.974;2022-11-30T13:48:29;102272.34;;;3.48;100.00
24825;BME280;12910;57.690;11.974;2022-11-30T13:50:55;102276.53;;;3.47;100.00
24825;BME280;12910;57.690;11.974;2022-11-30T13:53:32;102278.97;;;3.46;100.00
24825;BME280;12910;57.690;11.974;2022-11-30T13:56:05;102282.50;;;3.48;100.00
24825;BME280;12910;57.690;11.974;2022-11-30T13:58:33;102280.72;;;3.47;100.00
24825;BME280;12910;57.690;11.974;2022-11-30T14:03:28;102282.25;;;3.45;100.00
24825;BME280;12910;57.690;11.974;2022-11-30T14:20:57;102284.69;;;3.43;100.00
24825;BME280;12910;57.690;11.974;2022-11-30T14:26:16;102283.59;;;3.39;100.00
24825;BME280;12910;57.690;11.974;2022-11-30T14:29:43;102286.34;;;3.42;100.00
24825;BME280;12910;57.690;11.974;2022-11-30T14:31:48;102280.41;;;3.42;100.00